Time;durP1;ratioP1;P1;durP2;ratioP2;P2;SDS_P1;SDS_P2;PMS_P1;PMS_P2;Temp;Humidity;BMP_temperature;BMP_pressure;BME280_temperature;BME280_humidity;BME280_pressure;Samples;Min_cycle;Max_cycle;Signal;HPM_P1;HPM_P2
2023/06/23 00:01:32;;;;;;;9.60;2.10;;;;;;;22.15;53.26;99919.73;108125;1277;22544;-79
2023/06/23 00:04:03;;;;;;;6.10;1.70;;;;;;;22.16;53.25;99908.48;108189;1274;23270;-80
2023/06/23 00:06:34;;;;;;;7.20;2.00;;;;;;;22.16;53.15;99893.27;108207;1272;25414;-80
2023/06/23 00:09:13;;;;;;;8.20;2.00;;;;;;;22.14;53.21;99882.74;107557;1277;22553;-80
2023/06/23 00:11:46;;;;;;;9.30;2.50;;;;;;;22.13;53.18;99876.80;110059;1272;22255;-80
2023/06/23 00:14:16;;;;;;;7.30;2.00;;;;;;;22.11;53.31;99875.04;109941;1279;22554;-80
2023/06/23 00:16:47;;;;;;;8.50;2.50;;;;;;;22.10;53.29;99879.48;108198;1277;22534;-80
2023/06/23 00:19:18;;;;;;;8.50;2.10;;;;;;;22.07;53.23;99887.16;108140;1274;22594;-80
2023/06/23 00:21:49;;;;;;;7.60;2.20;;;;;;;22.03;53.46;99888.34;107636;1273;22535;-80
2023/06/23 00:24:21;;;;;;;7.80;2.10;;;;;;;22.02;53.46;99897.31;108198;1275;24194;-80
2023/06/23 00:26:52;;;;;;;7.80;2.00;;;;;;;22.00;53.61;99912.41;108107;1274;23255;-80
2023/06/23 00:29:23;;;;;;;6.50;1.90;;;;;;;21.98;53.75;99921.84;108068;1272;22550;-80
2023/06/23 00:31:54;;;;;;;7.10;1.90;;;;;;;21.95;53.95;99920.32;108240;1275;23837;-79
2023/06/23 00:34:25;;;;;;;6.80;2.20;;;;;;;21.93;54.14;99918.38;107772;1271;25969;-79
2023/06/23 00:36:57;;;;;;;7.60;2.20;;;;;;;21.90;54.05;99909.13;107740;1271;22540;-79
2023/06/23 00:39:27;;;;;;;8.20;2.30;;;;;;;21.87;54.46;99896.65;108123;1274;22523;-79
2023/06/23 00:42:01;;;;;;;6.60;2.20;;;;;;;21.85;54.71;99885.05;107847;1272;22534;-79
2023/06/23 00:44:33;;;;;;;7.10;1.90;;;;;;;21.80;54.79;99873.73;108179;1269;22520;-79
2023/06/23 00:47:05;;;;;;;6.50;2.20;;;;;;;21.76;55.08;99866.41;107629;1271;25437;-79
2023/06/23 00:49:36;;;;;;;7.00;2.10;;;;;;;21.70;55.28;99855.98;103579;1272;5409725;-79
2023/06/23 00:52:10;;;;;;;7.60;2.00;;;;;;;21.66;55.42;99852.11;107603;1274;22527;-80
2023/06/23 00:54:41;;;;;;;8.00;2.40;;;;;;;21.61;55.32;99855.33;107719;1272;23891;-79
2023/06/23 00:57:12;;;;;;;8.40;2.30;;;;;;;21.58;55.43;99842.30;108138;1271;22565;-80
2023/06/23 00:59:44;;;;;;;8.80;2.40;;;;;;;21.56;55.64;99820.24;108028;1275;22520;-79
2023/06/23 01:02:16;;;;;;;8.00;2.30;;;;;;;21.54;55.82;99790.48;108189;1256;22547;-79
2023/06/23 01:04:48;;;;;;;9.50;2.10;;;;;;;21.52;55.82;99784.90;108141;1272;23347;-79
2023/06/23 01:07:28;;;;;;;8.00;2.40;;;;;;;21.49;55.80;99802.20;108204;1271;22518;-79
2023/06/23 01:10:07;;;;;;;8.60;2.10;;;;;;;21.42;56.05;99806.67;108091;1272;22542;-79
2023/06/23 01:12:45;;;;;;;7.90;2.20;;;;;;;21.36;56.15;99808.61;110186;1278;22237;-79
2023/06/23 01:15:20;;;;;;;10.60;2.30;;;;;;;21.30;56.47;99836.47;110133;1278;22145;-79
2023/06/23 01:18:05;;;;;;;9.10;2.60;;;;;;;21.27;57.02;99855.83;110126;1271;22223;-79
2023/06/23 01:20:41;;;;;;;9.30;2.60;;;;;;;21.21;57.18;99850.60;110054;1275;23016;-78
2023/06/23 01:23:43;;;;;;;6.90;1.90;;;;;;;21.17;57.20;99858.98;108376;1270;25357;-79
2023/06/23 01:26:39;;;;;;;8.00;2.10;;;;;;;21.13;57.65;99877.58;108058;1274;22651;-79
2023/06/23 01:29:11;;;;;;;9.00;2.60;;;;;;;21.08;58.14;99878.85;107970;1271;22545;-79
2023/06/23 01:31:49;;;;;;;7.30;2.10;;;;;;;21.05;58.52;99876.79;108144;1273;22519;-79
2023/06/23 01:34:25;;;;;;;7.90;2.40;;;;;;;21.02;58.86;99892.23;108249;1274;22595;-79
2023/06/23 01:37:01;;;;;;;12.50;2.50;;;;;;;20.98;59.13;99899.96;110175;1277;22168;-79
2023/06/23 01:39:36;;;;;;;10.40;2.40;;;;;;;20.94;59.31;99890.83;110208;1274;22428;-79
2023/06/23 01:42:12;;;;;;;11.30;2.60;;;;;;;20.93;59.26;99894.79;110206;1274;22162;-79
2023/06/23 01:44:48;;;;;;;12.00;3.10;;;;;;;20.92;59.51;99892.84;110149;1277;22380;-79
2023/06/23 01:47:24;;;;;;;7.70;2.10;;;;;;;20.94;59.82;99858.02;110174;1271;23017;-79
2023/06/23 01:49:59;;;;;;;7.50;2.20;;;;;;;20.98;59.91;99819.56;110172;1274;22162;-79
2023/06/23 01:52:33;;;;;;;7.40;2.30;;;;;;;21.03;59.91;99790.95;110235;1274;22162;-79
2023/06/23 01:55:06;;;;;;;8.80;2.80;;;;;;;21.07;59.80;99775.11;110203;1274;23332;-79
2023/06/23 01:57:39;;;;;;;9.80;3.00;;;;;;;21.07;60.08;99764.89;109166;1272;22955;-79
2023/06/23 02:00:13;;;;;;;11.80;3.60;;;;;;;21.09;60.25;99781.71;108152;1270;22558;-79
2023/06/23 02:02:46;;;;;;;9.60;3.20;;;;;;;21.09;60.41;99824.78;108195;1270;24194;-79
2023/06/23 02:05:21;;;;;;;10.10;2.50;;;;;;;21.08;60.42;99854.74;108199;1273;22586;-79
2023/06/23 02:07:56;;;;;;;9.10;2.60;;;;;;;21.06;60.31;99879.18;108117;1278;22489;-79
2023/06/23 02:10:30;;;;;;;7.90;2.40;;;;;;;21.03;60.75;99967.45;108039;1278;22659;-79
2023/06/23 02:13:03;;;;;;;12.90;3.20;;;;;;;20.92;61.71;100084.15;108188;1272;25574;-79
2023/06/23 02:15:35;;;;;;;15.90;3.50;;;;;;;20.87;65.82;100081.66;108142;1270;22481;-79
2023/06/23 02:18:09;;;;;;;9.40;1.70;;;;;;;20.67;69.49;100059.73;108021;1275;22543;-81
2023/06/23 02:20:42;;;;;;;7.40;1.70;;;;;;;20.37;72.22;99993.42;107920;1272;22614;-83
2023/06/23 02:23:14;;;;;;;11.40;2.20;;;;;;;20.11;72.98;99967.67;108100;1272;22578;-81
2023/06/23 02:25:47;;;;;;;9.80;2.00;;;;;;;19.93;73.78;100031.83;108134;1272;25270;-81
2023/06/23 02:28:19;;;;;;;10.90;2.50;;;;;;;19.88;73.99;100023.95;108133;1272;22520;-80
2023/06/23 02:30:52;;;;;;;13.40;2.70;;;;;;;19.90;74.96;100023.45;108156;1274;22552;-79
2023/06/23 02:33:23;;;;;;;10.60;2.40;;;;;;;19.93;75.57;99996.39;108093;1274;22523;-79
2023/06/23 02:35:58;;;;;;;13.80;2.50;;;;;;;19.94;76.12;99975.55;108084;1274;23943;-79
2023/06/23 02:38:31;;;;;;;12.50;2.20;;;;;;;19.93;76.43;99950.11;110191;1274;22489;-80
2023/06/23 02:41:07;;;;;;;10.30;2.40;;;;;;;19.93;76.92;99932.86;110198;1275;22211;-79
2023/06/23 02:43:46;;;;;;;9.70;2.30;;;;;;;19.96;77.04;99943.58;108602;1274;22528;-79
2023/06/23 02:46:21;;;;;;;9.50;1.80;;;;;;;20.01;77.09;99945.65;108207;1274;23274;-80
2023/06/23 02:48:55;;;;;;;10.50;2.40;;;;;;;20.06;77.18;99966.91;108121;1272;22578;-79
2023/06/23 02:51:28;;;;;;;10.00;2.00;;;;;;;20.11;78.02;99958.35;107991;1273;22566;-79
2023/06/23 02:54:04;;;;;;;9.60;1.70;;;;;;;20.10;78.40;99946.31;107921;1272;27351;-79
2023/06/23 02:56:37;;;;;;;12.80;1.90;;;;;;;20.07;79.03;99960.50;107953;1271;24259;-79
2023/06/23 02:59:10;;;;;;;9.30;2.20;;;;;;;20.02;79.50;99965.05;107949;1272;23572;-80
2023/06/23 03:01:46;;;;;;;10.60;1.80;;;;;;;19.94;80.26;99939.96;108237;1272;22484;-79
2023/06/23 03:04:17;;;;;;;8.20;2.10;;;;;;;19.88;80.31;99911.09;108166;1264;25420;-79
2023/06/23 03:06:48;;;;;;;9.20;1.90;;;;;;;19.90;80.79;99888.48;108093;1270;22533;-79
2023/06/23 03:09:19;;;;;;;11.20;1.80;;;;;;;19.91;81.41;99873.07;108011;1270;22559;-80
2023/06/23 03:11:50;;;;;;;15.10;2.10;;;;;;;19.83;81.58;99862.94;108095;1274;22712;-79
2023/06/23 03:14:21;;;;;;;9.80;2.20;;;;;;;19.79;81.50;99853.58;108087;1274;23554;-79
2023/06/23 03:17:01;;;;;;;12.80;1.90;;;;;;;19.81;81.86;99836.95;108179;1274;22550;-80
2023/06/23 03:19:34;;;;;;;;;;;;;;;19.81;82.06;99816.09;108259;1274;25274;-81
2023/06/23 03:22:12;;;;;;;10.30;1.90;;;;;;;19.76;82.68;99813.67;108161;1274;22560;-81
2023/06/23 03:24:47;;;;;;;8.90;1.90;;;;;;;19.73;82.74;99829.27;108023;1272;23397;-81
2023/06/23 03:27:23;;;;;;;9.50;1.70;;;;;;;19.74;83.04;99842.54;110195;1270;22407;-82
2023/06/23 03:30:02;;;;;;;10.50;1.80;;;;;;;19.76;82.82;99840.19;110171;1272;22165;-82
2023/06/23 03:32:35;;;;;;;;;;;;;;;19.77;82.62;99846.88;110180;1274;22346;-83
2023/06/23 03:35:11;;;;;;;12.70;2.40;;;;;;;19.80;83.17;99845.46;108556;1272;22498;-82
2023/06/23 03:37:47;;;;;;;8.50;2.00;;;;;;;19.81;83.18;99846.16;108184;1271;23795;-82
2023/06/23 03:40:21;;;;;;;11.50;2.30;;;;;;;19.83;83.49;99861.31;108241;1275;22538;-85
2023/06/23 03:42:56;;;;;;;11.00;2.10;;;;;;;19.80;83.90;99867.61;108200;1271;22562;-82
2023/06/23 03:45:29;;;;;;;10.50;2.10;;;;;;;19.77;84.04;99856.63;108036;1274;22587;-81
2023/06/23 03:48:04;;;;;;;10.60;2.00;;;;;;;19.75;84.24;99840.02;108161;1274;22508;-81
2023/06/23 03:50:39;;;;;;;12.70;2.50;;;;;;;19.74;84.38;99844.29;107690;1273;25520;-81
2023/06/23 03:53:16;;;;;;;15.00;3.00;;;;;;;19.73;84.68;99833.90;108076;1278;22515;-82
2023/06/23 03:55:51;;;;;;;11.10;2.20;;;;;;;19.73;84.46;99829.48;107938;1272;22529;-81
2023/06/23 03:58:24;;;;;;;13.10;2.50;;;;;;;19.72;84.92;99835.62;108052;1272;24323;-82
2023/06/23 04:00:58;;;;;;;10.10;1.90;;;;;;;19.70;84.85;99836.65;108340;1276;22572;-80
2023/06/23 04:03:32;;;;;;;11.10;3.00;;;;;;;19.70;84.93;99851.68;108711;1273;25220;-83
2023/06/23 04:06:05;;;;;;;8.00;2.30;;;;;;;19.66;85.31;99860.70;108723;1273;23872;-81
2023/06/23 04:08:40;;;;;;;10.60;2.40;;;;;;;19.63;85.50;99866.95;108423;1272;24314;-82
2023/06/23 04:11:15;;;;;;;8.00;2.30;;;;;;;19.62;85.98;99869.65;108221;1271;22525;-82
2023/06/23 04:13:49;;;;;;;13.40;2.30;;;;;;;19.60;86.31;99867.85;108055;1270;24748;-83
2023/06/23 04:16:22;;;;;;;10.70;2.90;;;;;;;19.57;86.34;99866.17;108390;1276;22523;-82
2023/06/23 04:18:55;;;;;;;14.50;3.30;;;;;;;19.57;86.82;99865.19;108282;1270;22625;-82
2023/06/23 04:21:36;;;;;;;11.60;2.70;;;;;;;19.56;87.06;99869.29;108281;1270;22570;-82
2023/06/23 04:24:10;;;;;;;13.80;2.30;;;;;;;19.55;87.25;99874.56;108067;1276;26517;-83
2023/06/23 04:26:44;;;;;;;8.20;2.50;;;;;;;19.54;87.51;99866.59;108139;1271;22560;-83
2023/06/23 04:29:17;;;;;;;11.10;3.00;;;;;;;19.54;87.67;99858.09;108315;1272;22598;-83
2023/06/23 04:31:51;;;;;;;9.70;2.50;;;;;;;19.56;87.58;99848.90;108354;1265;23249;-83
2023/06/23 04:34:21;;;;;;;15.70;3.00;;;;;;;19.57;87.89;99828.49;108181;1270;22583;-83
2023/06/23 04:37:02;;;;;;;12.50;3.50;;;;;;;19.58;87.85;99814.15;108156;1274;22571;-84
2023/06/23 04:39:45;;;;;;;12.70;3.40;;;;;;;19.56;88.08;99808.63;108428;1272;22582;-85
2023/06/23 04:42:21;;;;;;;13.80;2.90;;;;;;;19.57;88.40;99808.09;108349;1275;22659;-85
2023/06/23 04:44:58;;;;;;;11.20;3.30;;;;;;;19.59;88.50;99831.00;108242;1276;22534;-84
2023/06/23 04:47:34;;;;;;;12.20;3.10;;;;;;;19.61;88.93;99846.77;108323;1275;22552;-84
2023/06/23 04:50:09;;;;;;;12.40;4.00;;;;;;;19.61;89.00;99846.01;108280;1271;22491;-84
2023/06/23 04:52:47;;;;;;;13.60;3.20;;;;;;;19.60;88.94;99837.31;108048;1273;23963;-84
2023/06/23 04:55:30;;;;;;;11.50;3.50;;;;;;;19.59;89.28;99830.99;108106;1276;22566;-84
2023/06/23 04:58:04;;;;;;;13.40;3.30;;;;;;;19.55;89.57;99822.04;108173;1257;25523;-84
2023/06/23 05:00:37;;;;;;;11.00;3.50;;;;;;;19.51;89.65;99819.36;108170;1273;24244;-84
2023/06/23 05:03:08;;;;;;;13.80;3.90;;;;;;;19.49;89.91;99825.73;108141;1261;22525;-83
2023/06/23 05:05:42;;;;;;;10.60;3.20;;;;;;;19.48;90.15;99830.05;108226;1270;25332;-84
2023/06/23 05:08:14;;;;;;;15.30;4.20;;;;;;;19.44;90.41;99825.17;108178;1272;25432;-83
2023/06/23 05:10:48;;;;;;;18.60;4.30;;;;;;;19.44;90.54;99818.54;108172;1275;25442;-83
2023/06/23 05:13:21;;;;;;;12.80;4.20;;;;;;;19.46;90.69;99826.86;108258;1273;22588;-83
2023/06/23 05:15:53;;;;;;;13.60;4.30;;;;;;;19.45;90.94;99831.27;108307;1276;22533;-83
2023/06/23 05:18:26;;;;;;;17.70;4.80;;;;;;;19.46;91.14;99834.30;108158;1270;24266;-83
2023/06/23 05:21:04;;;;;;;16.10;4.70;;;;;;;19.47;91.32;99834.01;108086;1276;22481;-83
2023/06/23 05:23:36;;;;;;;13.60;4.70;;;;;;;19.49;91.53;99822.70;108051;1273;22513;-83
2023/06/23 05:26:11;;;;;;;13.30;4.60;;;;;;;19.47;91.82;99836.84;108208;1276;22469;-84
2023/06/23 05:28:45;;;;;;;13.20;5.70;;;;;;;19.46;92.12;99849.95;108203;1270;23716;-84
2023/06/23 05:31:19;;;;;;;15.50;5.70;;;;;;;19.45;92.10;99843.64;108092;1277;24225;-83
2023/06/23 05:33:52;;;;;;;12.30;4.40;;;;;;;19.48;92.19;99844.55;108192;1273;23784;-84
2023/06/23 05:36:26;;;;;;;18.00;5.30;;;;;;;19.50;92.55;99854.85;108168;1270;23545;-83
2023/06/23 05:38:59;;;;;;;13.40;4.90;;;;;;;19.53;92.77;99858.63;108128;1274;25249;-83
2023/06/23 05:41:30;;;;;;;15.90;6.00;;;;;;;19.57;92.85;99857.48;108115;1273;22616;-83
2023/06/23 05:44:01;;;;;;;13.70;5.40;;;;;;;19.59;92.78;99858.33;108296;1274;23366;-83
2023/06/23 05:46:36;;;;;;;15.30;5.50;;;;;;;19.61;93.15;99862.46;108121;1278;22548;-83
2023/06/23 05:49:19;;;;;;;18.60;5.60;;;;;;;19.64;93.33;99867.17;108027;1275;22530;-83
2023/06/23 05:51:56;;;;;;;23.40;7.30;;;;;;;19.68;93.37;99877.95;108000;1270;22524;-83
2023/06/23 05:54:30;;;;;;;18.50;6.90;;;;;;;19.72;93.49;99880.06;108120;1276;22547;-83
2023/06/23 05:57:05;;;;;;;16.20;6.80;;;;;;;19.74;93.71;99884.09;108163;1277;22529;-83
2023/06/23 05:59:39;;;;;;;19.20;7.70;;;;;;;19.75;93.99;99895.61;108135;1264;25420;-83
2023/06/23 06:02:26;;;;;;;22.90;7.90;;;;;;;19.75;94.14;99903.42;108135;1276;23311;-83
2023/06/23 06:05:00;;;;;;;16.00;6.70;;;;;;;19.76;94.49;99910.77;108139;1278;25412;-83
2023/06/23 06:07:34;;;;;;;18.30;7.80;;;;;;;19.76;94.51;99906.70;108170;1278;22478;-83
2023/06/23 06:10:10;;;;;;;18.00;8.20;;;;;;;19.77;94.57;99904.36;108128;1278;23987;-83
2023/06/23 06:12:44;;;;;;;19.50;8.50;;;;;;;19.82;94.84;99904.86;108237;1278;22566;-83
2023/06/23 06:15:19;;;;;;;23.10;9.90;;;;;;;19.87;95.13;99909.36;108026;1276;23527;-83
2023/06/23 06:17:52;;;;;;;19.40;8.90;;;;;;;19.92;95.10;99911.66;108055;1278;22576;-83
2023/06/23 06:20:24;;;;;;;21.60;10.60;;;;;;;19.97;95.52;99905.80;108200;1273;22749;-82
2023/06/23 06:22:59;;;;;;;22.30;10.40;;;;;;;20.04;95.55;99893.74;108227;1277;22535;-83
2023/06/23 06:25:31;;;;;;;28.90;10.50;;;;;;;20.10;95.60;99899.16;108245;1278;23828;-83
2023/06/23 06:28:04;;;;;;;24.50;10.30;;;;;;;20.17;96.06;99906.40;108182;1274;22551;-83
2023/06/23 06:30:36;;;;;;;20.80;10.80;;;;;;;20.23;96.28;99908.60;108108;1273;24283;-83
2023/06/23 06:33:12;;;;;;;21.30;10.40;;;;;;;20.25;95.93;99903.55;108042;1274;24066;-83
2023/06/23 06:35:48;;;;;;;22.20;10.70;;;;;;;20.29;96.05;99900.52;108043;1272;22660;-83
2023/06/23 06:38:21;;;;;;;27.20;12.10;;;;;;;20.35;96.18;99907.52;108211;1273;22589;-83
2023/06/23 06:40:54;;;;;;;26.80;11.50;;;;;;;20.41;96.36;99906.24;108112;1255;22568;-82
2023/06/23 06:43:26;;;;;;;21.70;10.80;;;;;;;20.46;96.65;99902.95;108330;1274;25493;-82
2023/06/23 06:45:58;;;;;;;23.50;11.80;;;;;;;20.49;96.63;99905.52;108102;1276;22600;-82
2023/06/23 06:48:32;;;;;;;19.70;10.60;;;;;;;20.52;96.63;99910.42;108027;1278;22512;-82
2023/06/23 06:51:05;;;;;;;21.60;11.40;;;;;;;20.57;96.70;99917.52;108007;1278;22617;-82
2023/06/23 06:53:36;;;;;;;23.70;11.30;;;;;;;20.64;96.96;99926.15;108219;1276;23346;-82
2023/06/23 06:56:11;;;;;;;22.00;11.60;;;;;;;20.71;96.91;99938.38;108169;1279;22548;-83
2023/06/23 06:58:42;;;;;;;24.20;12.20;;;;;;;20.79;96.95;99941.39;108174;1278;22547;-83
2023/06/23 07:01:13;;;;;;;22.20;11.40;;;;;;;20.88;97.15;99945.08;108276;1274;22543;-82
2023/06/23 07:03:49;;;;;;;19.90;9.70;;;;;;;20.96;97.06;99948.05;108095;1273;22560;-82
2023/06/23 07:06:19;;;;;;;23.50;11.10;;;;;;;21.02;96.91;99949.32;108109;1273;25416;-82
2023/06/23 07:08:50;;;;;;;18.80;9.70;;;;;;;21.08;96.92;99948.55;108158;1267;25455;-82
2023/06/23 07:11:22;;;;;;;20.80;9.90;;;;;;;21.17;97.02;99947.86;108153;1273;24223;-82
2023/06/23 07:13:53;;;;;;;21.30;10.20;;;;;;;21.23;96.85;99948.34;107995;1278;22530;-83
2023/06/23 07:16:30;;;;;;;19.50;9.30;;;;;;;21.30;96.76;99942.89;108021;1273;22546;-83
2023/06/23 07:19:01;;;;;;;17.70;8.10;;;;;;;21.37;96.64;99944.55;108145;1273;22662;-82
2023/06/23 07:21:32;;;;;;;18.70;9.00;;;;;;;21.43;96.34;99947.30;108209;1267;23816;-82
2023/06/23 07:24:03;;;;;;;17.60;8.50;;;;;;;21.49;96.02;99947.01;110219;1273;22962;-83
2023/06/23 07:26:37;;;;;;;21.70;8.30;;;;;;;21.55;96.15;99942.98;110119;1278;22178;-83
2023/06/23 07:29:08;;;;;;;18.80;7.00;;;;;;;21.61;95.86;99939.14;109213;1273;23373;-83
2023/06/23 07:31:39;;;;;;;16.50;5.80;;;;;;;21.68;95.57;99935.41;108335;1278;22630;-82
2023/06/23 07:34:09;;;;;;;21.20;8.10;;;;;;;21.76;95.55;99937.23;108600;1278;25249;-82
2023/06/23 07:36:40;;;;;;;21.60;8.60;;;;;;;21.83;95.01;99936.63;108778;1274;22474;-83
2023/06/23 07:39:11;;;;;;;18.70;8.70;;;;;;;21.88;94.46;99933.48;108394;1278;22652;-83
2023/06/23 07:41:43;;;;;;;19.00;7.80;;;;;;;21.93;94.37;99940.97;108093;1257;22535;-83
2023/06/23 07:44:15;;;;;;;20.50;8.50;;;;;;;21.96;94.39;99950.27;107981;1278;22486;-82
2023/06/23 07:46:46;;;;;;;19.90;10.00;;;;;;;22.01;94.65;99952.58;107969;1277;22535;-82
2023/06/23 07:49:17;;;;;;;18.20;7.40;;;;;;;22.06;94.92;99956.00;108202;1273;23247;-83
2023/06/23 07:51:48;;;;;;;15.10;4.40;;;;;;;22.08;93.75;99958.15;108072;1276;23179;-82
2023/06/23 07:54:19;;;;;;;17.70;5.10;;;;;;;22.05;93.16;99965.54;108084;1274;22558;-82
2023/06/23 07:56:52;;;;;;;19.20;5.10;;;;;;;22.07;92.99;99974.56;108045;1274;22514;-83
2023/06/23 07:59:24;;;;;;;13.90;4.80;;;;;;;22.15;93.37;99978.16;108226;1272;22558;-83
2023/06/23 08:01:55;;;;;;;18.20;6.40;;;;;;;22.20;92.86;99979.26;108096;1272;22519;-82
2023/06/23 08:04:26;;;;;;;17.90;6.30;;;;;;;22.24;92.79;99979.34;108147;1278;24996;-83
2023/06/23 08:06:57;;;;;;;15.90;5.70;;;;;;;22.25;92.35;99974.14;108120;1276;24714;-82
2023/06/23 08:09:28;;;;;;;15.90;6.30;;;;;;;22.24;92.13;99974.83;108099;1278;22573;-83
2023/06/23 08:11:59;;;;;;;17.50;7.00;;;;;;;22.30;92.31;99976.52;108221;1276;22525;-83
2023/06/23 08:14:31;;;;;;;18.10;7.00;;;;;;;22.38;91.68;99982.66;108151;1278;25415;-83
2023/06/23 08:17:03;;;;;;;19.10;7.20;;;;;;;22.43;91.42;99986.34;108109;1278;25463;-83
2023/06/23 08:19:35;;;;;;;19.50;8.10;;;;;;;22.49;90.86;99989.45;108072;1278;22465;-83
2023/06/23 08:22:07;;;;;;;22.40;8.80;;;;;;;22.55;90.47;99983.61;108060;1278;22575;-83
2023/06/23 08:24:37;;;;;;;20.50;8.30;;;;;;;22.62;90.51;99991.08;107938;1278;24277;-83
2023/06/23 08:27:10;;;;;;;23.30;8.30;;;;;;;22.67;89.99;99996.11;108043;1277;24285;-83
2023/06/23 08:29:41;;;;;;;17.50;7.00;;;;;;;22.73;89.85;100004.97;108115;1272;25412;-83
2023/06/23 08:32:13;;;;;;;24.50;9.30;;;;;;;22.85;89.65;100010.77;108134;1271;22486;-81
2023/06/23 08:34:44;;;;;;;19.10;9.10;;;;;;;22.91;89.14;100011.78;108311;1278;22536;-81
2023/06/23 08:37:15;;;;;;;23.10;9.70;;;;;;;22.96;89.26;100009.77;108209;1274;22497;-82
2023/06/23 08:39:46;;;;;;;18.70;9.60;;;;;;;23.01;89.05;100009.02;108352;1273;22831;-81
2023/06/23 08:42:17;;;;;;;28.70;9.30;;;;;;;22.99;87.67;100009.54;108312;1270;22697;-81
2023/06/23 08:44:51;;;;;;;20.10;9.70;;;;;;;22.97;88.30;100008.05;108184;1264;23280;-81
2023/06/23 08:47:25;;;;;;;21.20;9.80;;;;;;;23.07;88.72;100009.83;108189;1276;22543;-81
2023/06/23 08:49:58;;;;;;;26.20;10.90;;;;;;;23.13;87.46;100005.04;108269;1278;23964;-80
2023/06/23 08:52:50;;;;;;;18.10;9.10;;;;;;;23.16;87.01;100016.07;108304;1272;23005;-80
2023/06/23 08:55:21;;;;;;;22.80;10.20;;;;;;;23.23;87.39;100018.54;108572;1266;25249;-80
2023/06/23 08:58:00;;;;;;;22.20;9.50;;;;;;;23.32;87.40;100010.33;108422;1271;22564;-80
2023/06/23 09:00:30;;;;;;;22.90;10.10;;;;;;;23.44;87.07;100013.92;108392;1276;22534;-80
2023/06/23 09:03:03;;;;;;;22.50;9.00;;;;;;;23.58;87.02;100014.33;108377;1274;24486;-80
2023/06/23 09:05:34;;;;;;;20.80;8.70;;;;;;;23.72;86.70;100011.00;108303;1273;22578;-80
2023/06/23 09:08:05;;;;;;;20.20;9.30;;;;;;;23.86;86.26;100014.63;108348;1278;22538;-80
2023/06/23 09:10:36;;;;;;;17.30;8.10;;;;;;;23.93;84.85;100013.76;108308;1271;22527;-80
2023/06/23 09:13:23;;;;;;;22.60;9.50;;;;;;;23.95;84.48;100016.15;108276;1278;22535;-80
2023/06/23 09:15:54;;;;;;;20.00;9.90;;;;;;;23.97;84.16;100023.35;108325;1273;24064;-80
2023/06/23 09:18:25;;;;;;;18.80;8.50;;;;;;;23.99;83.96;100023.95;108261;1278;22561;-80
2023/06/23 09:20:56;;;;;;;19.30;8.30;;;;;;;24.04;83.51;100029.16;108304;1274;25432;-81
2023/06/23 09:23:30;;;;;;;20.40;8.40;;;;;;;24.10;83.50;100027.65;108432;1272;22502;-81
2023/06/23 09:26:21;;;;;;;18.80;7.40;;;;;;;24.18;83.14;100030.47;108319;1271;25381;-81
2023/06/23 09:28:52;;;;;;;17.40;7.30;;;;;;;24.26;82.69;100037.59;108173;1279;22610;-81
2023/06/23 09:31:25;;;;;;;17.30;6.80;;;;;;;24.37;82.59;100040.31;108094;1272;22540;-81
2023/06/23 09:33:56;;;;;;;18.60;6.30;;;;;;;24.49;81.97;100038.90;108262;1278;23345;-81
2023/06/23 09:36:37;;;;;;;17.60;6.40;;;;;;;24.63;81.66;100034.02;108328;1272;26379;-81
2023/06/23 09:39:15;;;;;;;18.90;7.00;;;;;;;24.80;81.56;100033.55;108241;1273;22578;-81
2023/06/23 09:41:55;;;;;;;20.30;7.20;;;;;;;24.94;81.06;100033.55;108066;1270;24195;-81
2023/06/23 09:44:34;;;;;;;15.30;7.10;;;;;;;25.04;79.84;100038.57;108288;1271;26066;-81
2023/06/23 09:47:07;;;;;;;16.40;6.10;;;;;;;25.03;79.33;100036.21;108207;1273;24063;-81
2023/06/23 09:49:43;;;;;;;20.70;6.50;;;;;;;25.05;79.28;100039.31;108299;1271;22666;-81
2023/06/23 09:52:15;;;;;;;18.70;6.90;;;;;;;25.07;78.50;100043.37;108310;1276;22581;-82
2023/06/23 09:54:46;;;;;;;18.60;6.90;;;;;;;25.05;78.43;100034.52;108284;1257;22516;-82
2023/06/23 09:57:19;;;;;;;24.50;6.90;;;;;;;25.08;78.09;100032.20;108212;1274;22529;-82
2023/06/23 09:59:58;;;;;;;13.60;5.30;;;;;;;25.13;78.13;100038.90;108265;1270;22485;-83
2023/06/23 10:02:30;;;;;;;19.20;5.10;;;;;;;25.21;77.97;100041.30;108247;1272;22549;-82
2023/06/23 10:05:05;;;;;;;15.60;5.50;;;;;;;25.32;76.83;100049.65;108202;1277;25415;-82
2023/06/23 10:07:36;;;;;;;20.30;5.00;;;;;;;25.40;76.84;100042.10;108129;1264;25249;-83
2023/06/23 10:10:11;;;;;;;16.30;5.10;;;;;;;25.53;76.26;100046.44;108290;1271;22535;-83
2023/06/23 10:12:42;;;;;;;13.10;4.60;;;;;;;25.61;75.71;100041.30;108184;1274;23003;-83
2023/06/23 10:15:14;;;;;;;15.20;4.60;;;;;;;25.68;75.71;100029.88;108360;1271;22489;-83
2023/06/23 10:17:46;;;;;;;14.00;4.90;;;;;;;25.73;74.18;100024.97;108345;1271;23153;-83
2023/06/23 10:20:18;;;;;;;13.40;4.90;;;;;;;25.77;74.71;100020.99;108276;1270;22523;-80
2023/06/23 10:22:51;;;;;;;12.90;3.80;;;;;;;25.82;73.78;100019.53;108295;1272;22686;-81
2023/06/23 10:25:23;;;;;;;11.60;3.90;;;;;;;25.87;74.17;100025.10;108143;1273;24235;-82
2023/06/23 10:27:58;;;;;;;13.20;3.30;;;;;;;25.94;73.71;100022.27;108143;1273;22612;-83
2023/06/23 10:30:31;;;;;;;10.60;3.10;;;;;;;26.02;73.59;100019.34;108343;1270;22541;-82
2023/06/23 10:33:06;;;;;;;12.60;3.40;;;;;;;26.10;71.89;100022.88;108277;1278;24248;-82
2023/06/23 10:35:40;;;;;;;9.90;3.30;;;;;;;26.09;71.31;100032.39;108134;1274;23185;-82
2023/06/23 10:38:13;;;;;;;14.70;3.80;;;;;;;26.11;71.36;100033.77;108117;1272;24848;-83
2023/06/23 10:40:50;;;;;;;9.30;3.50;;;;;;;26.14;70.90;100037.77;108233;1267;23345;-82
2023/06/23 10:43:30;;;;;;;14.30;4.40;;;;;;;26.21;71.18;100042.34;108353;1273;22627;-83
2023/06/23 10:46:04;;;;;;;9.60;3.60;;;;;;;26.34;71.23;100046.11;108436;1274;22556;-83
2023/06/23 10:48:37;;;;;;;17.80;4.10;;;;;;;26.40;70.23;100049.19;108275;1276;22513;-82
2023/06/23 10:51:09;;;;;;;15.00;3.40;;;;;;;26.43;69.89;100052.97;108374;1267;23169;-82
2023/06/23 10:53:51;;;;;;;11.50;3.10;;;;;;;26.45;70.02;100054.79;108240;1278;22577;-83
2023/06/23 10:56:35;;;;;;;10.00;3.40;;;;;;;26.47;69.76;100051.17;108263;1271;22556;-83
2023/06/23 11:02:19;;;;;;;12.30;3.80;;;;;;;26.56;69.50;100046.98;102161;1314;546044;-60
2023/06/23 11:04:56;;;;;;;9.30;2.90;;;;;;;26.59;68.51;100036.81;109259;1281;22172;-62
2023/06/23 11:07:27;;;;;;;9.50;3.00;;;;;;;26.66;68.58;100032.62;109283;1286;22150;-59
2023/06/23 11:10:07;;;;;;;11.90;3.20;;;;;;;26.71;68.12;100032.36;109332;1285;22164;-61
2023/06/23 11:12:44;;;;;;;12.70;3.00;;;;;;;26.72;68.07;100035.86;109268;1283;22393;-60
2023/06/23 11:15:19;;;;;;;11.70;3.00;;;;;;;26.72;68.03;100038.58;105228;1278;5442160;-61
2023/06/23 11:17:52;;;;;;;13.10;3.50;;;;;;;26.64;67.66;100045.63;109468;1283;22353;-62
2023/06/23 11:20:33;;;;;;;13.20;3.50;;;;;;;26.50;67.87;100039.21;109498;1279;22342;-61
2023/06/23 11:23:07;;;;;;;10.10;2.90;;;;;;;26.38;67.76;100037.01;109451;1282;22342;-61
2023/06/23 11:25:42;;;;;;;8.70;2.70;;;;;;;26.24;67.87;100048.20;109410;1283;22168;-61
2023/06/23 11:28:34;;;;;;;11.10;3.30;;;;;;;26.09;67.87;100055.41;109432;1283;22210;-61
2023/06/23 11:31:08;;;;;;;13.30;4.10;;;;;;;25.96;68.05;100066.20;109433;1287;22246;-61
2023/06/23 11:33:40;;;;;;;10.50;3.80;;;;;;;25.81;69.21;100069.52;109400;1277;22216;-60
2023/06/23 11:36:14;;;;;;;18.40;3.70;;;;;;;25.66;70.07;100061.15;109399;1283;22218;-60
2023/06/23 11:38:45;;;;;;;12.40;3.10;;;;;;;25.54;70.58;100063.14;109432;1283;22178;-60
2023/06/23 11:41:25;;;;;;;11.50;3.40;;;;;;;25.47;70.95;100070.85;109434;1282;22971;-60
2023/06/23 11:43:59;;;;;;;14.20;4.10;;;;;;;25.43;71.47;100066.66;109442;1290;22317;-61
2023/06/23 11:46:34;;;;;;;13.20;3.70;;;;;;;25.44;71.75;100065.70;109460;1283;22336;-60
2023/06/23 11:49:12;;;;;;;11.80;3.80;;;;;;;25.47;72.20;100052.86;109418;1286;22485;-61
2023/06/23 11:51:43;;;;;;;10.30;3.60;;;;;;;25.51;71.84;100046.75;109416;1285;22505;-60